sensor_id;sensor_type;location;lat;lon;timestamp;pressure;altitude;pressure_sealevel;temperature;humidity
37170;BME280;23062;13.952;100.608;2023-07-31T00:02:23;1006.46;;;31.96;65.06
37170;BME280;23062;13.952;100.608;2023-07-31T00:06:50;1006.67;;;31.91;65.76
37170;BME280;23062;13.952;100.608;2023-07-31T00:11:23;1006.83;;;31.93;65.33
37170;BME280;23062;13.952;100.608;2023-07-31T00:15:50;1006.92;;;31.97;65.07
37170;BME280;23062;13.952;100.608;2023-07-31T00:20:19;1007.08;;;31.94;65.16
37170;BME280;23062;13.952;100.608;2023-07-31T00:24:44;1007.18;;;31.98;65.04
37170;BME280;23062;13.952;100.608;2023-07-31T00:29:12;1007.20;;;31.97;65.11
37170;BME280;23062;13.952;100.608;2023-07-31T00:33:46;1007.29;;;31.94;65.33
37170;BME280;23062;13.952;100.608;2023-07-31T00:38:15;1007.46;;;31.95;65.38
37170;BME280;23062;13.952;100.608;2023-07-31T00:42:41;1007.52;;;31.96;65.46
37170;BME280;23062;13.952;100.608;2023-07-31T00:47:15;1007.47;;;31.94;65.56
37170;BME280;23062;13.952;100.608;2023-07-31T00:51:41;1007.42;;;31.96;65.57
37170;BME280;23062;13.952;100.608;2023-07-31T00:56:17;1007.46;;;31.93;65.83
37170;BME280;23062;13.952;100.608;2023-07-31T01:00:43;1007.52;;;31.95;65.56
37170;BME280;23062;13.952;100.608;2023-07-31T01:05:23;1007.65;;;31.93;65.95
37170;BME280;23062;13.952;100.608;2023-07-31T01:14:50;1007.64;;;31.94;65.96
37170;BME280;23062;13.952;100.608;2023-07-31T01:19:11;1007.65;;;31.94;66.16
37170;BME280;23062;13.952;100.608;2023-07-31T01:23:44;1007.74;;;31.94;66.07
37170;BME280;23062;13.952;100.608;2023-07-31T01:28:09;1007.77;;;31.96;66.03
37170;BME280;23062;13.952;100.608;2023-07-31T01:32:39;1007.84;;;31.94;66.11
37170;BME280;23062;13.952;100.608;2023-07-31T01:37:08;1007.91;;;31.94;66.07
37170;BME280;23062;13.952;100.608;2023-07-31T01:41:34;1007.81;;;31.94;66.00
37170;BME280;23062;13.952;100.608;2023-07-31T01:46:00;1007.82;;;31.95;66.21
37170;BME280;23062;13.952;100.608;2023-07-31T01:50:29;1007.84;;;31.95;66.47
37170;BME280;23062;13.952;100.608;2023-07-31T01:54:56;1007.88;;;31.99;66.19
37170;BME280;23062;13.952;100.608;2023-07-31T01:59:22;1007.91;;;31.99;66.15
37170;BME280;23062;13.952;100.608;2023-07-31T02:03:55;1007.93;;;31.98;66.11
37170;BME280;23062;13.952;100.608;2023-07-31T02:08:24;1007.95;;;31.99;66.07
37170;BME280;23062;13.952;100.608;2023-07-31T02:12:59;1007.94;;;31.96;66.36
37170;BME280;23062;13.952;100.608;2023-07-31T02:17:32;1007.96;;;31.96;66.31
37170;BME280;23062;13.952;100.608;2023-07-31T02:21:58;1007.93;;;31.97;66.17
37170;BME280;23062;13.952;100.608;2023-07-31T02:26:25;1007.95;;;31.98;66.23
37170;BME280;23062;13.952;100.608;2023-07-31T02:30:53;1008.05;;;31.98;66.33
37170;BME280;23062;13.952;100.608;2023-07-31T02:35:20;1008.13;;;31.99;66.43
37170;BME280;23062;13.952;100.608;2023-07-31T02:39:46;1008.14;;;31.98;66.40
37170;BME280;23062;13.952;100.608;2023-07-31T02:44:18;1008.20;;;31.97;66.50
37170;BME280;23062;13.952;100.608;2023-07-31T02:48:46;1008.41;;;32.00;66.41
37170;BME280;23062;13.952;100.608;2023-07-31T02:53:19;1008.50;;;31.97;66.60
37170;BME280;23062;13.952;100.608;2023-07-31T02:57:48;1008.69;;;31.98;66.65
37170;BME280;23062;13.952;100.608;2023-07-31T03:02:21;1008.77;;;31.98;66.68
37170;BME280;23062;13.952;100.608;2023-07-31T03:06:47;1008.81;;;31.99;66.66
37170;BME280;23062;13.952;100.608;2023-07-31T03:11:15;1008.82;;;31.99;66.60
37170;BME280;23062;13.952;100.608;2023-07-31T03:15:42;1008.88;;;31.98;66.48
37170;BME280;23062;13.952;100.608;2023-07-31T03:20:15;1008.86;;;31.98;66.54
37170;BME280;23062;13.952;100.608;2023-07-31T03:24:49;1008.85;;;31.97;66.51
37170;BME280;23062;13.952;100.608;2023-07-31T03:29:15;1008.80;;;31.94;66.43
37170;BME280;23062;13.952;100.608;2023-07-31T03:33:41;1008.77;;;31.95;66.13
37170;BME280;23062;13.952;100.608;2023-07-31T03:38:15;1008.75;;;31.93;66.07
37170;BME280;23062;13.952;100.608;2023-07-31T03:42:41;1008.79;;;31.91;66.06
37170;BME280;23062;13.952;100.608;2023-07-31T03:47:08;1008.84;;;31.89;65.94
37170;BME280;23062;13.952;100.608;2023-07-31T03:51:34;1008.79;;;31.91;65.68
37170;BME280;23062;13.952;100.608;2023-07-31T03:56:04;1008.77;;;31.92;65.52
37170;BME280;23062;13.952;100.608;2023-07-31T04:00:30;1008.72;;;31.93;65.30
37170;BME280;23062;13.952;100.608;2023-07-31T04:05:06;1008.60;;;31.93;65.18
37170;BME280;23062;13.952;100.608;2023-07-31T04:09:39;1008.61;;;31.90;65.21
37170;BME280;23062;13.952;100.608;2023-07-31T04:14:11;1008.59;;;31.88;65.16
37170;BME280;23062;13.952;100.608;2023-07-31T04:18:38;1008.58;;;31.89;64.98
37170;BME280;23062;13.952;100.608;2023-07-31T04:23:06;1008.68;;;31.88;64.91
37170;BME280;23062;13.952;100.608;2023-07-31T04:27:33;1008.69;;;31.90;64.75
37170;BME280;23062;13.952;100.608;2023-07-31T04:32:06;1008.69;;;31.88;64.63
37170;BME280;23062;13.952;100.608;2023-07-31T04:36:37;1008.45;;;31.88;64.48
37170;BME280;23062;13.952;100.608;2023-07-31T04:41:04;1008.36;;;31.89;64.29
37170;BME280;23062;13.952;100.608;2023-07-31T04:45:29;1008.30;;;31.90;64.14
37170;BME280;23062;13.952;100.608;2023-07-31T04:49:55;1008.29;;;31.90;64.02
37170;BME280;23062;13.952;100.608;2023-07-31T04:54:21;1008.27;;;31.88;63.88
37170;BME280;23062;13.952;100.608;2023-07-31T04:58:48;1008.24;;;31.88;63.70
37170;BME280;23062;13.952;100.608;2023-07-31T05:03:17;1008.19;;;31.89;63.53
37170;BME280;23062;13.952;100.608;2023-07-31T05:07:43;1008.16;;;31.86;63.53
37170;BME280;23062;13.952;100.608;2023-07-31T05:12:10;1008.12;;;31.88;63.23
37170;BME280;23062;13.952;100.608;2023-07-31T05:16:39;1008.14;;;31.87;63.11
37170;BME280;23062;13.952;100.608;2023-07-31T05:21:06;1007.99;;;31.89;62.98
37170;BME280;23062;13.952;100.608;2023-07-31T05:25:33;1007.93;;;31.87;62.94
37170;BME280;23062;13.952;100.608;2023-07-31T05:30:03;1007.85;;;31.87;62.87
37170;BME280;23062;13.952;100.608;2023-07-31T05:34:28;1007.84;;;31.89;62.65
37170;BME280;23062;13.952;100.608;2023-07-31T05:38:55;1007.90;;;31.89;62.57
37170;BME280;23062;13.952;100.608;2023-07-31T05:43:21;1007.77;;;31.89;62.46
37170;BME280;23062;13.952;100.608;2023-07-31T05:47:56;1007.78;;;31.88;62.47
37170;BME280;23062;13.952;100.608;2023-07-31T05:52:27;1007.63;;;31.87;62.40
37170;BME280;23062;13.952;100.608;2023-07-31T05:56:55;1007.60;;;31.89;62.24
37170;BME280;23062;13.952;100.608;2023-07-31T06:01:21;1007.53;;;31.91;62.16
37170;BME280;23062;13.952;100.608;2023-07-31T06:05:48;1007.49;;;31.90;62.17
37170;BME280;23062;13.952;100.608;2023-07-31T06:10:21;1007.41;;;31.90;62.08
37170;BME280;23062;13.952;100.608;2023-07-31T06:14:53;1007.40;;;31.89;62.08
37170;BME280;23062;13.952;100.608;2023-07-31T06:19:27;1007.40;;;31.90;62.00
37170;BME280;23062;13.952;100.608;2023-07-31T06:23:54;1007.28;;;31.88;62.00
37170;BME280;23062;13.952;100.608;2023-07-31T06:28:21;1007.27;;;31.92;61.85
37170;BME280;23062;13.952;100.608;2023-07-31T06:32:47;1007.23;;;31.92;61.80
37170;BME280;23062;13.952;100.608;2023-07-31T06:37:15;1007.17;;;31.91;61.78
37170;BME280;23062;13.952;100.608;2023-07-31T06:41:40;1007.07;;;31.94;61.69
37170;BME280;23062;13.952;100.608;2023-07-31T06:46:07;1006.96;;;31.93;61.68
37170;BME280;23062;13.952;100.608;2023-07-31T06:50:34;1006.85;;;31.93;61.69
37170;BME280;23062;13.952;100.608;2023-07-31T06:55:18;1006.74;;;31.93;61.72
37170;BME280;23062;13.952;100.608;2023-07-31T06:59:47;1006.63;;;31.94;61.72
37170;BME280;23062;13.952;100.608;2023-07-31T07:04:14;1006.45;;;31.94;61.73
37170;BME280;23062;13.952;100.608;2023-07-31T07:08:42;1006.31;;;31.96;61.70
37170;BME280;23062;13.952;100.608;2023-07-31T07:13:10;1006.31;;;31.93;61.77
37170;BME280;23062;13.952;100.608;2023-07-31T07:17:37;1006.20;;;31.96;61.70
37170;BME280;23062;13.952;100.608;2023-07-31T07:22:04;1006.13;;;31.98;61.68
37170;BME280;23062;13.952;100.608;2023-07-31T07:26:36;1006.04;;;31.98;61.70
37170;BME280;23062;13.952;100.608;2023-07-31T07:31:11;1005.89;;;31.95;61.71
37170;BME280;23062;13.952;100.608;2023-07-31T07:35:38;1005.92;;;32.00;61.59
37170;BME280;23062;13.952;100.608;2023-07-31T07:40:06;1005.83;;;31.99;61.61
37170;BME280;23062;13.952;100.608;2023-07-31T07:44:40;1005.75;;;32.01;61.54
37170;BME280;23062;13.952;100.608;2023-07-31T07:49:07;1005.71;;;32.00;61.54
37170;BME280;23062;13.952;100.608;2023-07-31T07:53:32;1005.58;;;32.02;61.41
37170;BME280;23062;13.952;100.608;2023-07-31T07:58:00;1005.55;;;32.03;61.12
37170;BME280;23062;13.952;100.608;2023-07-31T08:02:26;1005.55;;;32.02;61.18
37170;BME280;23062;13.952;100.608;2023-07-31T08:06:52;1005.50;;;32.03;61.13
37170;BME280;23062;13.952;100.608;2023-07-31T08:11:25;1005.50;;;32.02;61.12
37170;BME280;23062;13.952;100.608;2023-07-31T08:15:53;1005.39;;;32.03;61.08
37170;BME280;23062;13.952;100.608;2023-07-31T08:20:19;1005.41;;;32.02;61.07
37170;BME280;23062;13.952;100.608;2023-07-31T08:24:49;1005.40;;;32.02;61.02
37170;BME280;23062;13.952;100.608;2023-07-31T08:29:18;1005.39;;;32.03;60.98
37170;BME280;23062;13.952;100.608;2023-07-31T08:33:46;1005.32;;;32.06;60.93
37170;BME280;23062;13.952;100.608;2023-07-31T08:38:13;1005.23;;;32.04;60.92
37170;BME280;23062;13.952;100.608;2023-07-31T08:42:45;1005.26;;;32.04;60.96
37170;BME280;23062;13.952;100.608;2023-07-31T08:47:14;1005.25;;;32.07;60.86
37170;BME280;23062;13.952;100.608;2023-07-31T08:51:49;1005.18;;;32.05;60.85
37170;BME280;23062;13.952;100.608;2023-07-31T08:56:22;1005.16;;;32.05;60.84
37170;BME280;23062;13.952;100.608;2023-07-31T09:00:56;1005.15;;;32.06;60.86
37170;BME280;23062;13.952;100.608;2023-07-31T09:05:31;1005.06;;;32.06;60.83
37170;BME280;23062;13.952;100.608;2023-07-31T09:10:06;1004.96;;;32.08;60.82
37170;BME280;23062;13.952;100.608;2023-07-31T09:14:34;1004.93;;;32.08;60.82
37170;BME280;23062;13.952;100.608;2023-07-31T09:19:08;1004.89;;;32.08;60.75
37170;BME280;23062;13.952;100.608;2023-07-31T09:23:43;1004.90;;;32.08;60.78
37170;BME280;23062;13.952;100.608;2023-07-31T09:28:10;1004.78;;;32.09;60.71
37170;BME280;23062;13.952;100.608;2023-07-31T09:32:37;1004.79;;;32.10;60.69
37170;BME280;23062;13.952;100.608;2023-07-31T09:37:06;1004.80;;;32.09;60.71
37170;BME280;23062;13.952;100.608;2023-07-31T09:41:32;1004.87;;;32.10;60.68
37170;BME280;23062;13.952;100.608;2023-07-31T09:45:59;1004.96;;;32.11;60.69
37170;BME280;23062;13.952;100.608;2023-07-31T09:50:28;1004.97;;;32.12;60.68
37170;BME280;23062;13.952;100.608;2023-07-31T09:54:56;1005.03;;;32.13;60.70
37170;BME280;23062;13.952;100.608;2023-07-31T09:59:24;1005.05;;;32.13;60.70
37170;BME280;23062;13.952;100.608;2023-07-31T10:03:58;1005.07;;;32.13;60.75
37170;BME280;23062;13.952;100.608;2023-07-31T10:08:27;1005.10;;;32.13;60.71
37170;BME280;23062;13.952;100.608;2023-07-31T10:12:59;1005.14;;;32.14;60.73
37170;BME280;23062;13.952;100.608;2023-07-31T10:17:27;1005.16;;;32.15;60.70
37170;BME280;23062;13.952;100.608;2023-07-31T10:22:03;1005.12;;;32.13;60.71
37170;BME280;23062;13.952;100.608;2023-07-31T10:26:32;1005.16;;;32.15;60.64
37170;BME280;23062;13.952;100.608;2023-07-31T10:31:08;1005.20;;;32.13;60.63
37170;BME280;23062;13.952;100.608;2023-07-31T10:35:37;1005.23;;;32.15;60.67
37170;BME280;23062;13.952;100.608;2023-07-31T10:44:49;1005.19;;;32.15;60.56
37170;BME280;23062;13.952;100.608;2023-07-31T10:49:20;1005.23;;;32.17;60.53
37170;BME280;23062;13.952;100.608;2023-07-31T10:53:53;1005.33;;;32.16;60.62
37170;BME280;23062;13.952;100.608;2023-07-31T10:58:27;1005.34;;;32.15;60.65
37170;BME280;23062;13.952;100.608;2023-07-31T11:03:18;1005.33;;;32.17;60.69
37170;BME280;23062;13.952;100.608;2023-07-31T11:07:51;1005.41;;;32.16;60.75
37170;BME280;23062;13.952;100.608;2023-07-31T11:12:25;1005.51;;;32.16;60.81
37170;BME280;23062;13.952;100.608;2023-07-31T11:16:54;1005.60;;;32.17;60.95
37170;BME280;23062;13.952;100.608;2023-07-31T11:21:23;1005.62;;;32.19;60.94
37170;BME280;23062;13.952;100.608;2023-07-31T11:25:51;1005.69;;;32.20;61.08
37170;BME280;23062;13.952;100.608;2023-07-31T11:30:18;1005.67;;;32.19;61.10
37170;BME280;23062;13.952;100.608;2023-07-31T11:34:55;1005.73;;;32.19;61.24
37170;BME280;23062;13.952;100.608;2023-07-31T11:39:23;1005.77;;;32.19;61.29
37170;BME280;23062;13.952;100.608;2023-07-31T11:43:49;1005.93;;;32.20;61.27
37170;BME280;23062;13.952;100.608;2023-07-31T11:48:31;1005.96;;;32.22;61.30
37170;BME280;23062;13.952;100.608;2023-07-31T11:53:00;1005.99;;;32.21;61.38
37170;BME280;23062;13.952;100.608;2023-07-31T11:57:27;1006.01;;;32.22;61.37
37170;BME280;23062;13.952;100.608;2023-07-31T12:01:53;1006.05;;;32.21;61.39
37170;BME280;23062;13.952;100.608;2023-07-31T12:06:39;1006.13;;;32.20;61.47
37170;BME280;23062;13.952;100.608;2023-07-31T12:11:08;1006.17;;;32.21;61.49
37170;BME280;23062;13.952;100.608;2023-07-31T12:15:43;1006.21;;;32.20;61.57
37170;BME280;23062;13.952;100.608;2023-07-31T12:20:12;1006.23;;;32.22;61.54
37170;BME280;23062;13.952;100.608;2023-07-31T12:24:42;1006.25;;;32.21;61.66
37170;BME280;23062;13.952;100.608;2023-07-31T12:29:19;1006.20;;;32.21;61.68
37170;BME280;23062;13.952;100.608;2023-07-31T12:33:46;1006.35;;;32.22;61.73
37170;BME280;23062;13.952;100.608;2023-07-31T12:38:21;1006.33;;;32.23;61.82
37170;BME280;23062;13.952;100.608;2023-07-31T12:42:44;1006.33;;;32.22;61.86
37170;BME280;23062;13.952;100.608;2023-07-31T12:47:11;1006.41;;;32.23;62.00
37170;BME280;23062;13.952;100.608;2023-07-31T12:51:45;1006.49;;;32.23;61.94
37170;BME280;23062;13.952;100.608;2023-07-31T12:56:12;1006.51;;;32.24;62.08
37170;BME280;23062;13.952;100.608;2023-07-31T13:00:48;1006.51;;;32.23;62.06
37170;BME280;23062;13.952;100.608;2023-07-31T13:05:15;1006.59;;;32.24;62.12
37170;BME280;23062;13.952;100.608;2023-07-31T13:09:43;1006.72;;;32.22;62.27
37170;BME280;23062;13.952;100.608;2023-07-31T13:14:17;1006.86;;;32.24;62.33
37170;BME280;23062;13.952;100.608;2023-07-31T13:18:45;1006.92;;;32.24;62.35
37170;BME280;23062;13.952;100.608;2023-07-31T13:23:13;1006.98;;;32.26;62.44
37170;BME280;23062;13.952;100.608;2023-07-31T13:27:42;1006.97;;;32.26;62.45
37170;BME280;23062;13.952;100.608;2023-07-31T13:32:11;1007.04;;;32.25;62.72
37170;BME280;23062;13.952;100.608;2023-07-31T13:36:45;1007.09;;;32.27;62.50
37170;BME280;23062;13.952;100.608;2023-07-31T13:41:12;1007.14;;;32.25;62.63
37170;BME280;23062;13.952;100.608;2023-07-31T13:45:40;1007.28;;;32.26;62.63
37170;BME280;23062;13.952;100.608;2023-07-31T13:50:07;1007.32;;;32.26;62.96
37170;BME280;23062;13.952;100.608;2023-07-31T13:54:39;1007.36;;;32.25;63.27
37170;BME280;23062;13.952;100.608;2023-07-31T13:59:08;1007.44;;;32.26;62.93
37170;BME280;23062;13.952;100.608;2023-07-31T14:03:35;1007.49;;;32.28;62.82
37170;BME280;23062;13.952;100.608;2023-07-31T14:08:03;1007.55;;;32.27;62.97
37170;BME280;23062;13.952;100.608;2023-07-31T14:12:32;1007.58;;;32.27;63.05
37170;BME280;23062;13.952;100.608;2023-07-31T14:17:00;1007.62;;;32.27;63.10
37170;BME280;23062;13.952;100.608;2023-07-31T14:21:31;1007.63;;;32.27;63.05
37170;BME280;23062;13.952;100.608;2023-07-31T14:26:10;1007.71;;;32.27;63.06
37170;BME280;23062;13.952;100.608;2023-07-31T14:30:42;1007.75;;;32.27;63.15
37170;BME280;23062;13.952;100.608;2023-07-31T14:35:10;1007.82;;;32.26;63.30
37170;BME280;23062;13.952;100.608;2023-07-31T14:39:38;1007.85;;;32.29;63.05
37170;BME280;23062;13.952;100.608;2023-07-31T14:44:12;1007.87;;;32.28;63.22
37170;BME280;23062;13.952;100.608;2023-07-31T14:48:39;1007.85;;;32.28;63.25
37170;BME280;23062;13.952;100.608;2023-07-31T14:53:07;1007.90;;;32.27;63.28
37170;BME280;23062;13.952;100.608;2023-07-31T14:57:35;1007.93;;;32.29;63.25
37170;BME280;23062;13.952;100.608;2023-07-31T15:02:02;1008.03;;;32.29;63.28
37170;BME280;23062;13.952;100.608;2023-07-31T15:06:30;1008.06;;;32.27;63.30
37170;BME280;23062;13.952;100.608;2023-07-31T15:10:59;1008.22;;;32.27;63.29
37170;BME280;23062;13.952;100.608;2023-07-31T15:15:24;1008.20;;;32.30;63.18
37170;BME280;23062;13.952;100.608;2023-07-31T15:19:51;1008.17;;;32.28;63.22
37170;BME280;23062;13.952;100.608;2023-07-31T15:24:20;1008.17;;;32.29;63.17
37170;BME280;23062;13.952;100.608;2023-07-31T15:33:24;1008.20;;;32.27;63.24
37170;BME280;23062;13.952;100.608;2023-07-31T15:37:51;1008.21;;;32.27;62.91
37170;BME280;23062;13.952;100.608;2023-07-31T15:42:19;1008.26;;;32.26;62.89
37170;BME280;23062;13.952;100.608;2023-07-31T15:46:53;1008.20;;;32.25;62.79
37170;BME280;23062;13.952;100.608;2023-07-31T15:51:32;1008.24;;;32.23;62.74
37170;BME280;23062;13.952;100.608;2023-07-31T15:56:06;1008.22;;;32.23;62.69
37170;BME280;23062;13.952;100.608;2023-07-31T16:00:34;1008.27;;;32.21;62.51
37170;BME280;23062;13.952;100.608;2023-07-31T16:05:01;1008.41;;;32.24;62.20
37170;BME280;23062;13.952;100.608;2023-07-31T16:09:30;1008.27;;;32.21;62.23
37170;BME280;23062;13.952;100.608;2023-07-31T16:14:11;1008.31;;;32.24;62.16
37170;BME280;23062;13.952;100.608;2023-07-31T16:18:42;1008.38;;;32.24;61.98
37170;BME280;23062;13.952;100.608;2023-07-31T16:23:09;1008.34;;;32.24;61.93
37170;BME280;23062;13.952;100.608;2023-07-31T16:27:39;1008.25;;;32.23;61.88
37170;BME280;23062;13.952;100.608;2023-07-31T16:32:17;1008.26;;;32.23;61.73
37170;BME280;23062;13.952;100.608;2023-07-31T16:36:44;1008.20;;;32.21;61.75
37170;BME280;23062;13.952;100.608;2023-07-31T16:41:21;1008.16;;;32.21;61.50
37170;BME280;23062;13.952;100.608;2023-07-31T16:45:48;1008.05;;;32.22;61.53
37170;BME280;23062;13.952;100.608;2023-07-31T16:50:21;1008.04;;;32.20;61.47
37170;BME280;23062;13.952;100.608;2023-07-31T16:54:48;1007.92;;;32.20;61.45
37170;BME280;23062;13.952;100.608;2023-07-31T16:59:27;1007.93;;;32.19;61.39
37170;BME280;23062;13.952;100.608;2023-07-31T17:04:02;1007.78;;;32.20;61.05
37170;BME280;23062;13.952;100.608;2023-07-31T17:08:43;1007.90;;;32.18;61.07
37170;BME280;23062;13.952;100.608;2023-07-31T17:13:17;1007.95;;;32.19;61.14
37170;BME280;23062;13.952;100.608;2023-07-31T17:17:44;1007.95;;;32.20;61.07
37170;BME280;23062;13.952;100.608;2023-07-31T17:22:20;1007.89;;;32.20;61.04
37170;BME280;23062;13.952;100.608;2023-07-31T17:26:45;1007.83;;;32.19;60.98
37170;BME280;23062;13.952;100.608;2023-07-31T17:31:12;1007.68;;;32.18;61.02
37170;BME280;23062;13.952;100.608;2023-07-31T17:35:38;1007.73;;;32.17;61.03
37170;BME280;23062;13.952;100.608;2023-07-31T17:40:04;1007.63;;;32.20;60.92
37170;BME280;23062;13.952;100.608;2023-07-31T17:44:31;1007.66;;;32.18;60.95
37170;BME280;23062;13.952;100.608;2023-07-31T17:49:08;1007.66;;;32.17;60.98
37170;BME280;23062;13.952;100.608;2023-07-31T17:53:45;1007.65;;;32.19;60.91
37170;BME280;23062;13.952;100.608;2023-07-31T17:58:14;1007.53;;;32.18;60.94
37170;BME280;23062;13.952;100.608;2023-07-31T18:02:41;1007.52;;;32.16;60.95
37170;BME280;23062;13.952;100.608;2023-07-31T18:07:14;1007.49;;;32.14;61.01
37170;BME280;23062;13.952;100.608;2023-07-31T18:11:40;1007.51;;;32.18;60.87
37170;BME280;23062;13.952;100.608;2023-07-31T18:16:06;1007.45;;;32.14;60.95
37170;BME280;23062;13.952;100.608;2023-07-31T18:20:31;1007.42;;;32.14;60.90
37170;BME280;23062;13.952;100.608;2023-07-31T18:24:58;1007.37;;;32.14;60.85
37170;BME280;23062;13.952;100.608;2023-07-31T18:29:25;1007.36;;;32.17;60.72
37170;BME280;23062;13.952;100.608;2023-07-31T18:33:57;1007.38;;;32.11;60.82
37170;BME280;23062;13.952;100.608;2023-07-31T18:38:26;1007.31;;;32.15;60.72
37170;BME280;23062;13.952;100.608;2023-07-31T18:42:53;1007.34;;;32.14;60.70
37170;BME280;23062;13.952;100.608;2023-07-31T18:47:21;1007.23;;;32.12;60.71
37170;BME280;23062;13.952;100.608;2023-07-31T18:51:54;1007.29;;;32.13;60.65
37170;BME280;23062;13.952;100.608;2023-07-31T18:56:21;1007.19;;;32.10;60.61
37170;BME280;23062;13.952;100.608;2023-07-31T19:00:48;1007.18;;;32.12;60.56
37170;BME280;23062;13.952;100.608;2023-07-31T19:05:16;1007.19;;;32.12;60.52
37170;BME280;23062;13.952;100.608;2023-07-31T19:09:50;1007.09;;;32.09;60.56
37170;BME280;23062;13.952;100.608;2023-07-31T19:14:21;1007.08;;;32.09;60.53
37170;BME280;23062;13.952;100.608;2023-07-31T19:18:50;1007.11;;;32.10;60.47
37170;BME280;23062;13.952;100.608;2023-07-31T19:23:18;1007.04;;;32.09;60.44
37170;BME280;23062;13.952;100.608;2023-07-31T19:27:44;1007.03;;;32.08;60.44
37170;BME280;23062;13.952;100.608;2023-07-31T19:32:11;1006.95;;;32.09;60.41
37170;BME280;23062;13.952;100.608;2023-07-31T19:36:45;1006.89;;;32.09;60.38
37170;BME280;23062;13.952;100.608;2023-07-31T19:41:12;1006.80;;;32.06;60.48
37170;BME280;23062;13.952;100.608;2023-07-31T19:45:40;1006.76;;;32.07;60.42
37170;BME280;23062;13.952;100.608;2023-07-31T19:50:07;1006.75;;;32.08;60.38
37170;BME280;23062;13.952;100.608;2023-07-31T19:54:32;1006.74;;;32.07;60.40
37170;BME280;23062;13.952;100.608;2023-07-31T19:58:59;1006.72;;;32.06;60.42
37170;BME280;23062;13.952;100.608;2023-07-31T20:03:29;1006.62;;;32.06;60.45
37170;BME280;23062;13.952;100.608;2023-07-31T20:07:57;1006.57;;;32.06;60.47
37170;BME280;23062;13.952;100.608;2023-07-31T20:12:26;1006.60;;;32.04;60.53
37170;BME280;23062;13.952;100.608;2023-07-31T20:16:53;1006.50;;;32.06;60.52
37170;BME280;23062;13.952;100.608;2023-07-31T20:21:24;1006.60;;;32.06;60.56
37170;BME280;23062;13.952;100.608;2023-07-31T20:25:57;1006.61;;;32.03;60.68
37170;BME280;23062;13.952;100.608;2023-07-31T20:30:27;1006.60;;;32.04;60.69
37170;BME280;23062;13.952;100.608;2023-07-31T20:34:53;1006.54;;;32.05;60.68
37170;BME280;23062;13.952;100.608;2023-07-31T20:39:19;1006.50;;;32.04;60.80
37170;BME280;23062;13.952;100.608;2023-07-31T20:43:46;1006.42;;;32.03;60.83
37170;BME280;23062;13.952;100.608;2023-07-31T20:48:19;1006.42;;;32.05;60.85
37170;BME280;23062;13.952;100.608;2023-07-31T20:52:52;1006.45;;;32.02;60.98
37170;BME280;23062;13.952;100.608;2023-07-31T20:57:19;1006.43;;;32.03;61.00
37170;BME280;23062;13.952;100.608;2023-07-31T21:01:46;1006.46;;;32.02;61.04
37170;BME280;23062;13.952;100.608;2023-07-31T21:06:17;1006.55;;;32.04;61.05
37170;BME280;23062;13.952;100.608;2023-07-31T21:10:49;1006.48;;;32.02;61.17
37170;BME280;23062;13.952;100.608;2023-07-31T21:15:17;1006.49;;;32.02;61.22
37170;BME280;23062;13.952;100.608;2023-07-31T21:19:46;1006.51;;;32.02;61.28
37170;BME280;23062;13.952;100.608;2023-07-31T21:24:14;1006.45;;;32.02;61.36
37170;BME280;23062;13.952;100.608;2023-07-31T21:28:39;1006.47;;;32.03;61.36
37170;BME280;23062;13.952;100.608;2023-07-31T21:33:12;1006.37;;;32.01;61.43
37170;BME280;23062;13.952;100.608;2023-07-31T21:37:44;1006.34;;;32.02;61.44
37170;BME280;23062;13.952;100.608;2023-07-31T21:42:16;1006.31;;;32.02;61.51
37170;BME280;23062;13.952;100.608;2023-07-31T21:46:49;1006.31;;;32.00;61.55
37170;BME280;23062;13.952;100.608;2023-07-31T21:51:17;1006.28;;;32.01;61.55
37170;BME280;23062;13.952;100.608;2023-07-31T21:55:48;1006.28;;;31.99;61.67
37170;BME280;23062;13.952;100.608;2023-07-31T22:00:15;1006.29;;;31.99;61.71
37170;BME280;23062;13.952;100.608;2023-07-31T22:04:43;1006.28;;;31.98;61.81
37170;BME280;23062;13.952;100.608;2023-07-31T22:09:08;1006.30;;;31.99;61.79
37170;BME280;23062;13.952;100.608;2023-07-31T22:13:41;1006.17;;;31.98;61.88
37170;BME280;23062;13.952;100.608;2023-07-31T22:18:11;1006.22;;;31.99;61.89
37170;BME280;23062;13.952;100.608;2023-07-31T22:22:41;1006.22;;;31.99;61.88
37170;BME280;23062;13.952;100.608;2023-07-31T22:27:07;1006.30;;;31.98;61.96
37170;BME280;23062;13.952;100.608;2023-07-31T22:31:37;1006.35;;;31.97;62.00
37170;BME280;23062;13.952;100.608;2023-07-31T22:36:05;1006.31;;;31.98;62.00
37170;BME280;23062;13.952;100.608;2023-07-31T22:40:35;1006.33;;;31.96;62.02
37170;BME280;23062;13.952;100.608;2023-07-31T22:45:09;1006.34;;;31.95;62.10
37170;BME280;23062;13.952;100.608;2023-07-31T22:49:38;1006.36;;;31.95;62.10
37170;BME280;23062;13.952;100.608;2023-07-31T22:54:04;1006.40;;;31.97;62.09
37170;BME280;23062;13.952;100.608;2023-07-31T22:58:31;1006.46;;;31.95;62.19
37170;BME280;23062;13.952;100.608;2023-07-31T23:02:59;1006.55;;;31.95;62.13
37170;BME280;23062;13.952;100.608;2023-07-31T23:07:31;1006.56;;;31.95;62.17
37170;BME280;23062;13.952;100.608;2023-07-31T23:11:58;1006.58;;;31.92;62.26
37170;BME280;23062;13.952;100.608;2023-07-31T23:16:30;1006.57;;;31.95;62.25
37170;BME280;23062;13.952;100.608;2023-07-31T23:20:56;1006.68;;;31.93;62.28
37170;BME280;23062;13.952;100.608;2023-07-31T23:25:33;1006.73;;;31.92;62.34
37170;BME280;23062;13.952;100.608;2023-07-31T23:29:56;1006.79;;;31.91;62.44
37170;BME280;23062;13.952;100.608;2023-07-31T23:34:29;1006.87;;;31.92;62.39
37170;BME280;23062;13.952;100.608;2023-07-31T23:39:02;1006.97;;;31.89;62.60
37170;BME280;23062;13.952;100.608;2023-07-31T23:43:30;1007.01;;;31.91;62.53